Alessandria Airport LILA

Flugplatz Daten

Name: Alessandria Airport

Ident: LILA

Lat: 44,92520142

Long: 8,6251297

Platzhöhe: 299 ft

IataCode:

City: Alessandria

Metar

2021/03/21 06:12
RJBB 210612Z 26016KT 4000 -SHRA BR FEW008 SCT015 BKN030 13/13 Q1003 RMK 1ST008 4CU015 6CU030 A2963 MOD TURB OBS AT 0550Z LILAC 4000FT A320

Taf

Gewünschte Webcam nicht vorhanden? Dann fügen Sie eine hinzu. Sie wird dann so schnell wie möglich freigeschaltet
Url: Title: